sensor_id;sensor_type;location;lat;lon;timestamp;P1;durP1;ratioP1;P2;durP2;ratioP2
32786;SDS011;19139;49.372;8.580;2023-07-20T00:00:00;3.80;;;1.77;;
32786;SDS011;19139;49.372;8.580;2023-07-20T00:02:27;4.13;;;2.00;;
32786;SDS011;19139;49.372;8.580;2023-07-20T00:04:54;2.47;;;1.93;;
32786;SDS011;19139;49.372;8.580;2023-07-20T00:07:20;3.37;;;2.17;;
32786;SDS011;19139;49.372;8.580;2023-07-20T00:09:47;4.10;;;2.03;;
32786;SDS011;19139;49.372;8.580;2023-07-20T00:12:14;2.13;;;1.53;;
32786;SDS011;19139;49.372;8.580;2023-07-20T00:14:40;5.57;;;1.97;;
32786;SDS011;19139;49.372;8.580;2023-07-20T00:17:07;2.83;;;1.80;;
32786;SDS011;19139;49.372;8.580;2023-07-20T00:19:34;3.90;;;2.20;;
32786;SDS011;19139;49.372;8.580;2023-07-20T00:22:01;3.80;;;2.07;;
32786;SDS011;19139;49.372;8.580;2023-07-20T00:24:28;2.20;;;1.90;;
32786;SDS011;19139;49.372;8.580;2023-07-20T00:26:54;2.73;;;2.00;;
32786;SDS011;19139;49.372;8.580;2023-07-20T00:29:21;3.90;;;2.23;;
32786;SDS011;19139;49.372;8.580;2023-07-20T00:31:48;3.37;;;2.07;;
32786;SDS011;19139;49.372;8.580;2023-07-20T00:34:17;2.17;;;1.77;;
32786;SDS011;19139;49.372;8.580;2023-07-20T00:36:43;3.70;;;2.47;;
32786;SDS011;19139;49.372;8.580;2023-07-20T00:39:10;2.07;;;1.90;;
32786;SDS011;19139;49.372;8.580;2023-07-20T00:41:37;2.30;;;2.10;;
32786;SDS011;19139;49.372;8.580;2023-07-20T00:44:04;3.93;;;2.27;;
32786;SDS011;19139;49.372;8.580;2023-07-20T00:46:31;2.70;;;2.00;;
32786;SDS011;19139;49.372;8.580;2023-07-20T00:48:59;3.00;;;1.90;;
32786;SDS011;19139;49.372;8.580;2023-07-20T00:51:27;3.17;;;1.80;;
32786;SDS011;19139;49.372;8.580;2023-07-20T00:53:54;3.03;;;1.97;;
32786;SDS011;19139;49.372;8.580;2023-07-20T00:56:21;4.87;;;2.43;;
32786;SDS011;19139;49.372;8.580;2023-07-20T00:58:49;2.73;;;2.00;;
32786;SDS011;19139;49.372;8.580;2023-07-20T01:01:16;3.63;;;2.20;;
32786;SDS011;19139;49.372;8.580;2023-07-20T01:03:43;4.17;;;2.63;;
32786;SDS011;19139;49.372;8.580;2023-07-20T01:08:55;2.50;;;1.87;;
32786;SDS011;19139;49.372;8.580;2023-07-20T01:11:41;3.00;;;2.00;;
32786;SDS011;19139;49.372;8.580;2023-07-20T01:14:15;3.47;;;2.17;;
32786;SDS011;19139;49.372;8.580;2023-07-20T01:16:43;4.70;;;2.03;;
32786;SDS011;19139;49.372;8.580;2023-07-20T01:19:10;4.37;;;2.17;;
32786;SDS011;19139;49.372;8.580;2023-07-20T01:21:47;4.53;;;2.17;;
32786;SDS011;19139;49.372;8.580;2023-07-20T01:24:27;2.30;;;2.00;;
32786;SDS011;19139;49.372;8.580;2023-07-20T01:32:34;2.63;;;1.90;;
32786;SDS011;19139;49.372;8.580;2023-07-20T01:35:02;3.30;;;2.03;;
32786;SDS011;19139;49.372;8.580;2023-07-20T01:37:31;4.03;;;1.80;;
32786;SDS011;19139;49.372;8.580;2023-07-20T01:40:00;3.83;;;2.33;;
32786;SDS011;19139;49.372;8.580;2023-07-20T01:42:27;4.67;;;2.03;;
32786;SDS011;19139;49.372;8.580;2023-07-20T01:44:54;3.73;;;2.00;;
32786;SDS011;19139;49.372;8.580;2023-07-20T01:47:20;4.23;;;2.30;;
32786;SDS011;19139;49.372;8.580;2023-07-20T01:49:47;4.00;;;2.07;;
32786;SDS011;19139;49.372;8.580;2023-07-20T01:52:14;2.57;;;2.17;;
32786;SDS011;19139;49.372;8.580;2023-07-20T01:54:41;4.40;;;2.30;;
32786;SDS011;19139;49.372;8.580;2023-07-20T01:57:08;2.20;;;2.00;;
32786;SDS011;19139;49.372;8.580;2023-07-20T01:59:34;3.73;;;2.83;;
32786;SDS011;19139;49.372;8.580;2023-07-20T02:02:01;2.47;;;1.93;;
32786;SDS011;19139;49.372;8.580;2023-07-20T02:04:28;2.50;;;2.30;;
32786;SDS011;19139;49.372;8.580;2023-07-20T02:06:54;2.43;;;2.20;;
32786;SDS011;19139;49.372;8.580;2023-07-20T02:09:21;4.30;;;2.20;;
32786;SDS011;19139;49.372;8.580;2023-07-20T02:11:47;2.80;;;1.70;;
32786;SDS011;19139;49.372;8.580;2023-07-20T02:14:14;3.60;;;2.80;;
32786;SDS011;19139;49.372;8.580;2023-07-20T02:16:41;2.70;;;2.40;;
32786;SDS011;19139;49.372;8.580;2023-07-20T02:19:07;3.53;;;2.10;;
32786;SDS011;19139;49.372;8.580;2023-07-20T02:21:34;3.27;;;2.00;;
32786;SDS011;19139;49.372;8.580;2023-07-20T02:24:01;2.57;;;2.33;;
32786;SDS011;19139;49.372;8.580;2023-07-20T02:26:28;2.80;;;1.90;;
32786;SDS011;19139;49.372;8.580;2023-07-20T02:28:54;3.00;;;2.10;;
32786;SDS011;19139;49.372;8.580;2023-07-20T02:31:21;3.03;;;2.20;;
32786;SDS011;19139;49.372;8.580;2023-07-20T02:33:48;3.47;;;2.60;;
32786;SDS011;19139;49.372;8.580;2023-07-20T02:36:14;5.27;;;2.30;;
32786;SDS011;19139;49.372;8.580;2023-07-20T02:38:42;4.57;;;2.27;;
32786;SDS011;19139;49.372;8.580;2023-07-20T02:41:09;2.73;;;1.73;;
32786;SDS011;19139;49.372;8.580;2023-07-20T02:43:36;4.10;;;2.37;;
32786;SDS011;19139;49.372;8.580;2023-07-20T02:46:02;3.60;;;2.10;;
32786;SDS011;19139;49.372;8.580;2023-07-20T02:48:29;3.77;;;2.97;;
32786;SDS011;19139;49.372;8.580;2023-07-20T02:50:55;3.97;;;2.23;;
32786;SDS011;19139;49.372;8.580;2023-07-20T02:53:22;4.80;;;2.83;;
32786;SDS011;19139;49.372;8.580;2023-07-20T02:55:49;3.03;;;2.23;;
32786;SDS011;19139;49.372;8.580;2023-07-20T02:58:18;4.50;;;2.00;;
32786;SDS011;19139;49.372;8.580;2023-07-20T03:00:45;3.93;;;2.10;;
32786;SDS011;19139;49.372;8.580;2023-07-20T03:03:12;6.07;;;2.73;;
32786;SDS011;19139;49.372;8.580;2023-07-20T03:05:40;2.33;;;1.97;;
32786;SDS011;19139;49.372;8.580;2023-07-20T03:08:07;3.87;;;2.30;;
32786;SDS011;19139;49.372;8.580;2023-07-20T03:10:40;3.90;;;2.17;;
32786;SDS011;19139;49.372;8.580;2023-07-20T03:13:07;3.97;;;2.40;;
32786;SDS011;19139;49.372;8.580;2023-07-20T03:15:34;3.07;;;2.23;;
32786;SDS011;19139;49.372;8.580;2023-07-20T03:18:00;4.33;;;2.30;;
32786;SDS011;19139;49.372;8.580;2023-07-20T03:20:27;2.63;;;2.10;;
32786;SDS011;19139;49.372;8.580;2023-07-20T03:22:54;3.87;;;2.27;;
32786;SDS011;19139;49.372;8.580;2023-07-20T03:25:21;2.70;;;2.10;;
32786;SDS011;19139;49.372;8.580;2023-07-20T03:27:48;2.63;;;2.17;;
32786;SDS011;19139;49.372;8.580;2023-07-20T03:30:15;4.77;;;2.60;;
32786;SDS011;19139;49.372;8.580;2023-07-20T03:32:41;3.27;;;2.57;;
32786;SDS011;19139;49.372;8.580;2023-07-20T03:35:08;3.67;;;2.60;;
32786;SDS011;19139;49.372;8.580;2023-07-20T03:37:35;3.40;;;2.80;;
32786;SDS011;19139;49.372;8.580;2023-07-20T03:40:02;3.63;;;2.70;;
32786;SDS011;19139;49.372;8.580;2023-07-20T03:42:30;4.37;;;2.73;;
32786;SDS011;19139;49.372;8.580;2023-07-20T03:44:57;3.57;;;2.83;;
32786;SDS011;19139;49.372;8.580;2023-07-20T03:47:24;4.20;;;2.80;;
32786;SDS011;19139;49.372;8.580;2023-07-20T03:49:50;3.07;;;2.60;;
32786;SDS011;19139;49.372;8.580;2023-07-20T03:52:17;3.23;;;2.30;;
32786;SDS011;19139;49.372;8.580;2023-07-20T03:54:44;4.57;;;2.40;;
32786;SDS011;19139;49.372;8.580;2023-07-20T03:57:10;3.47;;;2.80;;
32786;SDS011;19139;49.372;8.580;2023-07-20T03:59:37;3.57;;;2.53;;
32786;SDS011;19139;49.372;8.580;2023-07-20T04:02:05;3.70;;;2.40;;
32786;SDS011;19139;49.372;8.580;2023-07-20T04:04:32;3.73;;;2.77;;
32786;SDS011;19139;49.372;8.580;2023-07-20T04:06:58;3.30;;;2.80;;
32786;SDS011;19139;49.372;8.580;2023-07-20T04:09:25;2.80;;;2.53;;
32786;SDS011;19139;49.372;8.580;2023-07-20T04:11:52;3.07;;;2.27;;
32786;SDS011;19139;49.372;8.580;2023-07-20T04:14:18;4.47;;;2.70;;
32786;SDS011;19139;49.372;8.580;2023-07-20T04:16:48;4.10;;;2.53;;
32786;SDS011;19139;49.372;8.580;2023-07-20T04:19:14;2.93;;;2.43;;
32786;SDS011;19139;49.372;8.580;2023-07-20T04:21:41;3.20;;;2.23;;
32786;SDS011;19139;49.372;8.580;2023-07-20T04:24:08;4.23;;;2.53;;
32786;SDS011;19139;49.372;8.580;2023-07-20T04:26:35;7.20;;;3.10;;
32786;SDS011;19139;49.372;8.580;2023-07-20T04:29:02;4.93;;;2.77;;
32786;SDS011;19139;49.372;8.580;2023-07-20T04:31:29;4.10;;;2.50;;
32786;SDS011;19139;49.372;8.580;2023-07-20T04:33:59;4.60;;;2.87;;
32786;SDS011;19139;49.372;8.580;2023-07-20T04:36:26;4.07;;;2.90;;
32786;SDS011;19139;49.372;8.580;2023-07-20T04:38:52;4.63;;;3.27;;
32786;SDS011;19139;49.372;8.580;2023-07-20T04:41:19;3.83;;;2.90;;
32786;SDS011;19139;49.372;8.580;2023-07-20T04:43:46;5.33;;;2.97;;
32786;SDS011;19139;49.372;8.580;2023-07-20T04:46:13;5.90;;;3.50;;
32786;SDS011;19139;49.372;8.580;2023-07-20T04:48:41;4.23;;;3.33;;
32786;SDS011;19139;49.372;8.580;2023-07-20T04:51:07;5.17;;;3.50;;
32786;SDS011;19139;49.372;8.580;2023-07-20T04:53:34;4.27;;;3.40;;
32786;SDS011;19139;49.372;8.580;2023-07-20T04:56:01;6.20;;;3.80;;
32786;SDS011;19139;49.372;8.580;2023-07-20T04:58:28;3.90;;;3.10;;
32786;SDS011;19139;49.372;8.580;2023-07-20T05:00:54;7.50;;;3.73;;
32786;SDS011;19139;49.372;8.580;2023-07-20T05:03:21;4.63;;;3.67;;
32786;SDS011;19139;49.372;8.580;2023-07-20T05:05:48;5.20;;;3.80;;
32786;SDS011;19139;49.372;8.580;2023-07-20T05:08:15;6.93;;;3.40;;
32786;SDS011;19139;49.372;8.580;2023-07-20T05:10:42;4.70;;;3.23;;
32786;SDS011;19139;49.372;8.580;2023-07-20T05:13:09;7.43;;;4.60;;
32786;SDS011;19139;49.372;8.580;2023-07-20T05:15:36;6.63;;;3.73;;
32786;SDS011;19139;49.372;8.580;2023-07-20T05:18:02;5.80;;;3.17;;
32786;SDS011;19139;49.372;8.580;2023-07-20T05:20:29;5.20;;;3.13;;
32786;SDS011;19139;49.372;8.580;2023-07-20T05:22:57;4.57;;;3.20;;
32786;SDS011;19139;49.372;8.580;2023-07-20T05:25:24;5.73;;;2.90;;
32786;SDS011;19139;49.372;8.580;2023-07-20T05:27:52;4.87;;;3.20;;
32786;SDS011;19139;49.372;8.580;2023-07-20T05:30:21;7.50;;;2.90;;
32786;SDS011;19139;49.372;8.580;2023-07-20T05:32:47;5.07;;;2.73;;
32786;SDS011;19139;49.372;8.580;2023-07-20T05:35:17;3.80;;;2.93;;
32786;SDS011;19139;49.372;8.580;2023-07-20T05:37:44;3.57;;;2.77;;
32786;SDS011;19139;49.372;8.580;2023-07-20T05:40:12;4.83;;;3.30;;
32786;SDS011;19139;49.372;8.580;2023-07-20T05:42:40;5.27;;;2.97;;
32786;SDS011;19139;49.372;8.580;2023-07-20T05:45:07;3.50;;;2.70;;
32786;SDS011;19139;49.372;8.580;2023-07-20T05:47:34;4.17;;;2.67;;
32786;SDS011;19139;49.372;8.580;2023-07-20T05:50:01;3.70;;;3.20;;
32786;SDS011;19139;49.372;8.580;2023-07-20T05:52:27;5.27;;;3.03;;
32786;SDS011;19139;49.372;8.580;2023-07-20T05:54:54;7.67;;;3.67;;
32786;SDS011;19139;49.372;8.580;2023-07-20T05:57:21;5.97;;;3.43;;
32786;SDS011;19139;49.372;8.580;2023-07-20T05:59:47;5.80;;;4.00;;
32786;SDS011;19139;49.372;8.580;2023-07-20T06:02:14;6.17;;;3.60;;
32786;SDS011;19139;49.372;8.580;2023-07-20T06:04:41;4.53;;;3.77;;
32786;SDS011;19139;49.372;8.580;2023-07-20T06:07:08;4.37;;;3.90;;
32786;SDS011;19139;49.372;8.580;2023-07-20T06:09:35;6.40;;;4.17;;
32786;SDS011;19139;49.372;8.580;2023-07-20T06:12:03;6.80;;;3.70;;
32786;SDS011;19139;49.372;8.580;2023-07-20T06:14:30;5.33;;;3.90;;
32786;SDS011;19139;49.372;8.580;2023-07-20T06:16:56;4.30;;;3.57;;
32786;SDS011;19139;49.372;8.580;2023-07-20T06:19:23;6.40;;;4.30;;
32786;SDS011;19139;49.372;8.580;2023-07-20T06:21:50;5.17;;;3.47;;
32786;SDS011;19139;49.372;8.580;2023-07-20T06:24:17;5.03;;;4.03;;
32786;SDS011;19139;49.372;8.580;2023-07-20T06:26:43;6.13;;;4.03;;
32786;SDS011;19139;49.372;8.580;2023-07-20T06:29:10;4.67;;;3.73;;
32786;SDS011;19139;49.372;8.580;2023-07-20T06:31:37;4.83;;;3.70;;
32786;SDS011;19139;49.372;8.580;2023-07-20T06:34:04;5.77;;;4.03;;
32786;SDS011;19139;49.372;8.580;2023-07-20T06:36:30;4.33;;;3.40;;
32786;SDS011;19139;49.372;8.580;2023-07-20T06:38:57;4.83;;;3.10;;
32786;SDS011;19139;49.372;8.580;2023-07-20T06:41:27;4.00;;;3.13;;
32786;SDS011;19139;49.372;8.580;2023-07-20T06:43:56;5.80;;;3.73;;
32786;SDS011;19139;49.372;8.580;2023-07-20T06:46:25;3.33;;;2.97;;
32786;SDS011;19139;49.372;8.580;2023-07-20T06:48:53;3.90;;;2.93;;
32786;SDS011;19139;49.372;8.580;2023-07-20T06:51:22;5.43;;;3.50;;
32786;SDS011;19139;49.372;8.580;2023-07-20T06:53:49;5.20;;;3.00;;
32786;SDS011;19139;49.372;8.580;2023-07-20T06:56:16;4.00;;;2.87;;
32786;SDS011;19139;49.372;8.580;2023-07-20T06:58:43;4.17;;;3.30;;
32786;SDS011;19139;49.372;8.580;2023-07-20T07:01:09;3.83;;;2.70;;
32786;SDS011;19139;49.372;8.580;2023-07-20T07:03:36;8.47;;;3.93;;
32786;SDS011;19139;49.372;8.580;2023-07-20T07:06:03;7.07;;;3.00;;
32786;SDS011;19139;49.372;8.580;2023-07-20T07:08:30;3.93;;;2.40;;
32786;SDS011;19139;49.372;8.580;2023-07-20T07:10:56;5.43;;;2.80;;
32786;SDS011;19139;49.372;8.580;2023-07-20T07:13:23;4.43;;;3.30;;
32786;SDS011;19139;49.372;8.580;2023-07-20T07:15:51;4.77;;;3.30;;
32786;SDS011;19139;49.372;8.580;2023-07-20T07:18:17;3.30;;;2.37;;
32786;SDS011;19139;49.372;8.580;2023-07-20T07:20:50;4.63;;;2.70;;
32786;SDS011;19139;49.372;8.580;2023-07-20T07:23:18;3.77;;;2.80;;
32786;SDS011;19139;49.372;8.580;2023-07-20T07:25:45;3.20;;;2.10;;
32786;SDS011;19139;49.372;8.580;2023-07-20T07:28:12;3.07;;;2.17;;
32786;SDS011;19139;49.372;8.580;2023-07-20T07:30:39;3.87;;;2.50;;
32786;SDS011;19139;49.372;8.580;2023-07-20T07:33:06;4.57;;;2.40;;
32786;SDS011;19139;49.372;8.580;2023-07-20T07:35:33;2.57;;;1.97;;
32786;SDS011;19139;49.372;8.580;2023-07-20T07:37:59;2.50;;;2.10;;
32786;SDS011;19139;49.372;8.580;2023-07-20T07:40:46;3.07;;;2.30;;
32786;SDS011;19139;49.372;8.580;2023-07-20T07:43:13;3.60;;;2.23;;
32786;SDS011;19139;49.372;8.580;2023-07-20T07:45:40;3.47;;;2.03;;
32786;SDS011;19139;49.372;8.580;2023-07-20T07:48:07;2.67;;;1.70;;
32786;SDS011;19139;49.372;8.580;2023-07-20T07:50:34;4.63;;;2.33;;
32786;SDS011;19139;49.372;8.580;2023-07-20T07:53:01;4.73;;;2.77;;
32786;SDS011;19139;49.372;8.580;2023-07-20T07:55:27;4.30;;;2.07;;
32786;SDS011;19139;49.372;8.580;2023-07-20T07:57:54;4.60;;;1.93;;
32786;SDS011;19139;49.372;8.580;2023-07-20T08:00:21;6.13;;;1.77;;
32786;SDS011;19139;49.372;8.580;2023-07-20T08:02:49;2.47;;;1.80;;
32786;SDS011;19139;49.372;8.580;2023-07-20T08:05:16;3.07;;;1.70;;
32786;SDS011;19139;49.372;8.580;2023-07-20T08:07:43;4.80;;;2.07;;
32786;SDS011;19139;49.372;8.580;2023-07-20T08:10:10;5.17;;;2.10;;
32786;SDS011;19139;49.372;8.580;2023-07-20T08:12:37;6.00;;;2.03;;
32786;SDS011;19139;49.372;8.580;2023-07-20T08:15:03;5.00;;;2.23;;
32786;SDS011;19139;49.372;8.580;2023-07-20T08:17:30;3.67;;;2.03;;
32786;SDS011;19139;49.372;8.580;2023-07-20T08:19:57;2.97;;;2.20;;
32786;SDS011;19139;49.372;8.580;2023-07-20T08:22:24;3.67;;;2.47;;
32786;SDS011;19139;49.372;8.580;2023-07-20T08:24:51;4.27;;;1.93;;
32786;SDS011;19139;49.372;8.580;2023-07-20T08:27:17;3.23;;;1.97;;
32786;SDS011;19139;49.372;8.580;2023-07-20T08:29:44;2.53;;;2.30;;
32786;SDS011;19139;49.372;8.580;2023-07-20T08:32:11;2.83;;;1.80;;
32786;SDS011;19139;49.372;8.580;2023-07-20T08:34:39;3.90;;;1.63;;
32786;SDS011;19139;49.372;8.580;2023-07-20T08:37:06;3.23;;;1.83;;
32786;SDS011;19139;49.372;8.580;2023-07-20T08:39:33;2.80;;;2.03;;
32786;SDS011;19139;49.372;8.580;2023-07-20T08:42:01;2.20;;;1.83;;
32786;SDS011;19139;49.372;8.580;2023-07-20T08:44:31;3.13;;;1.93;;
32786;SDS011;19139;49.372;8.580;2023-07-20T08:47:02;2.80;;;1.60;;
32786;SDS011;19139;49.372;8.580;2023-07-20T08:49:32;2.77;;;2.00;;
32786;SDS011;19139;49.372;8.580;2023-07-20T08:51:59;2.40;;;1.67;;
32786;SDS011;19139;49.372;8.580;2023-07-20T08:54:27;3.93;;;1.93;;
32786;SDS011;19139;49.372;8.580;2023-07-20T08:57:01;3.63;;;1.80;;
32786;SDS011;19139;49.372;8.580;2023-07-20T08:59:29;2.53;;;1.53;;
32786;SDS011;19139;49.372;8.580;2023-07-20T09:01:57;2.73;;;1.93;;
32786;SDS011;19139;49.372;8.580;2023-07-20T09:04:25;4.47;;;1.60;;
32786;SDS011;19139;49.372;8.580;2023-07-20T09:06:51;3.07;;;1.60;;
32786;SDS011;19139;49.372;8.580;2023-07-20T09:09:18;1.90;;;1.37;;
32786;SDS011;19139;49.372;8.580;2023-07-20T09:11:51;2.43;;;1.50;;
32786;SDS011;19139;49.372;8.580;2023-07-20T09:14:18;1.77;;;1.57;;
32786;SDS011;19139;49.372;8.580;2023-07-20T09:16:55;1.97;;;1.60;;
32786;SDS011;19139;49.372;8.580;2023-07-20T09:19:22;2.13;;;1.57;;
32786;SDS011;19139;49.372;8.580;2023-07-20T09:21:49;1.93;;;1.60;;
32786;SDS011;19139;49.372;8.580;2023-07-20T09:24:17;2.00;;;1.43;;
32786;SDS011;19139;49.372;8.580;2023-07-20T09:26:46;2.37;;;2.03;;
32786;SDS011;19139;49.372;8.580;2023-07-20T09:29:21;2.30;;;1.90;;
32786;SDS011;19139;49.372;8.580;2023-07-20T09:32:00;1.93;;;1.47;;
32786;SDS011;19139;49.372;8.580;2023-07-20T09:34:28;2.83;;;1.67;;
32786;SDS011;19139;49.372;8.580;2023-07-20T09:37:00;2.47;;;1.90;;
32786;SDS011;19139;49.372;8.580;2023-07-20T09:39:28;2.50;;;1.83;;
32786;SDS011;19139;49.372;8.580;2023-07-20T09:41:59;2.40;;;2.10;;
32786;SDS011;19139;49.372;8.580;2023-07-20T09:44:30;3.97;;;2.00;;
32786;SDS011;19139;49.372;8.580;2023-07-20T09:47:02;2.20;;;1.93;;
32786;SDS011;19139;49.372;8.580;2023-07-20T09:49:30;2.40;;;1.80;;
32786;SDS011;19139;49.372;8.580;2023-07-20T09:52:17;1.67;;;1.57;;
32786;SDS011;19139;49.372;8.580;2023-07-20T09:55:05;3.77;;;2.00;;
32786;SDS011;19139;49.372;8.580;2023-07-20T09:57:35;2.50;;;1.60;;
32786;SDS011;19139;49.372;8.580;2023-07-20T10:00:03;3.43;;;1.93;;
32786;SDS011;19139;49.372;8.580;2023-07-20T10:02:43;2.30;;;1.50;;
32786;SDS011;19139;49.372;8.580;2023-07-20T10:05:14;3.97;;;1.77;;
32786;SDS011;19139;49.372;8.580;2023-07-20T10:07:48;3.90;;;1.57;;
32786;SDS011;19139;49.372;8.580;2023-07-20T10:10:36;2.43;;;1.73;;
32786;SDS011;19139;49.372;8.580;2023-07-20T10:13:07;2.63;;;1.60;;
32786;SDS011;19139;49.372;8.580;2023-07-20T10:15:40;1.83;;;1.67;;
32786;SDS011;19139;49.372;8.580;2023-07-20T10:18:15;1.47;;;1.37;;
32786;SDS011;19139;49.372;8.580;2023-07-20T10:20:49;3.73;;;2.37;;
32786;SDS011;19139;49.372;8.580;2023-07-20T10:23:21;3.33;;;1.80;;
32786;SDS011;19139;49.372;8.580;2023-07-20T10:25:48;2.37;;;1.87;;
32786;SDS011;19139;49.372;8.580;2023-07-20T10:28:16;2.87;;;2.10;;
32786;SDS011;19139;49.372;8.580;2023-07-20T10:30:42;2.70;;;1.70;;
32786;SDS011;19139;49.372;8.580;2023-07-20T10:33:09;3.00;;;1.67;;
32786;SDS011;19139;49.372;8.580;2023-07-20T10:38:42;2.60;;;1.90;;
32786;SDS011;19139;49.372;8.580;2023-07-20T10:41:19;3.50;;;1.83;;
32786;SDS011;19139;49.372;8.580;2023-07-20T10:43:46;3.93;;;1.53;;
32786;SDS011;19139;49.372;8.580;2023-07-20T10:46:14;3.90;;;2.00;;
32786;SDS011;19139;49.372;8.580;2023-07-20T10:48:59;2.20;;;1.83;;
32786;SDS011;19139;49.372;8.580;2023-07-20T10:51:28;3.03;;;2.00;;
32786;SDS011;19139;49.372;8.580;2023-07-20T10:53:58;2.23;;;2.03;;
32786;SDS011;19139;49.372;8.580;2023-07-20T10:56:28;2.77;;;1.80;;
32786;SDS011;19139;49.372;8.580;2023-07-20T10:58:58;4.17;;;2.40;;
32786;SDS011;19139;49.372;8.580;2023-07-20T11:01:29;2.70;;;2.00;;
32786;SDS011;19139;49.372;8.580;2023-07-20T11:03:58;2.40;;;1.87;;
32786;SDS011;19139;49.372;8.580;2023-07-20T11:08:57;3.87;;;2.40;;
32786;SDS011;19139;49.372;8.580;2023-07-20T11:11:34;3.60;;;1.80;;
32786;SDS011;19139;49.372;8.580;2023-07-20T11:14:04;3.43;;;1.90;;
32786;SDS011;19139;49.372;8.580;2023-07-20T11:16:33;2.60;;;2.27;;
32786;SDS011;19139;49.372;8.580;2023-07-20T11:19:04;3.57;;;1.67;;
32786;SDS011;19139;49.372;8.580;2023-07-20T11:21:35;3.97;;;1.90;;
32786;SDS011;19139;49.372;8.580;2023-07-20T11:24:21;5.07;;;2.50;;
32786;SDS011;19139;49.372;8.580;2023-07-20T11:26:52;4.20;;;2.90;;
32786;SDS011;19139;49.372;8.580;2023-07-20T11:29:20;4.70;;;2.17;;
32786;SDS011;19139;49.372;8.580;2023-07-20T11:31:58;3.47;;;2.00;;
32786;SDS011;19139;49.372;8.580;2023-07-20T11:34:26;5.50;;;2.27;;
32786;SDS011;19139;49.372;8.580;2023-07-20T11:36:54;2.77;;;1.67;;
32786;SDS011;19139;49.372;8.580;2023-07-20T11:39:23;2.50;;;1.60;;
32786;SDS011;19139;49.372;8.580;2023-07-20T11:41:52;3.07;;;1.97;;
32786;SDS011;19139;49.372;8.580;2023-07-20T11:44:24;3.37;;;2.13;;
32786;SDS011;19139;49.372;8.580;2023-07-20T11:49:42;4.73;;;2.50;;
32786;SDS011;19139;49.372;8.580;2023-07-20T11:52:10;2.33;;;1.77;;
32786;SDS011;19139;49.372;8.580;2023-07-20T11:54:42;3.47;;;1.80;;
32786;SDS011;19139;49.372;8.580;2023-07-20T11:57:18;5.63;;;1.90;;
32786;SDS011;19139;49.372;8.580;2023-07-20T11:59:55;2.80;;;1.93;;
32786;SDS011;19139;49.372;8.580;2023-07-20T12:02:35;4.40;;;1.87;;
32786;SDS011;19139;49.372;8.580;2023-07-20T12:05:02;3.43;;;1.87;;
32786;SDS011;19139;49.372;8.580;2023-07-20T12:07:34;3.20;;;1.90;;
32786;SDS011;19139;49.372;8.580;2023-07-20T12:10:11;6.97;;;1.90;;
32786;SDS011;19139;49.372;8.580;2023-07-20T12:12:39;1.90;;;1.53;;
32786;SDS011;19139;49.372;8.580;2023-07-20T12:15:14;3.97;;;2.07;;
32786;SDS011;19139;49.372;8.580;2023-07-20T12:17:42;2.13;;;1.73;;
32786;SDS011;19139;49.372;8.580;2023-07-20T12:20:10;2.83;;;2.10;;
32786;SDS011;19139;49.372;8.580;2023-07-20T12:22:38;4.77;;;1.80;;
32786;SDS011;19139;49.372;8.580;2023-07-20T12:25:06;2.33;;;1.90;;
32786;SDS011;19139;49.372;8.580;2023-07-20T12:27:37;2.00;;;1.47;;
32786;SDS011;19139;49.372;8.580;2023-07-20T12:30:07;2.67;;;1.97;;
32786;SDS011;19139;49.372;8.580;2023-07-20T12:32:34;3.37;;;1.70;;
32786;SDS011;19139;49.372;8.580;2023-07-20T12:35:01;2.43;;;1.70;;
32786;SDS011;19139;49.372;8.580;2023-07-20T12:37:28;2.67;;;1.73;;
32786;SDS011;19139;49.372;8.580;2023-07-20T12:39:55;3.13;;;2.00;;
32786;SDS011;19139;49.372;8.580;2023-07-20T12:42:21;2.33;;;1.93;;
32786;SDS011;19139;49.372;8.580;2023-07-20T12:44:49;3.13;;;2.20;;
32786;SDS011;19139;49.372;8.580;2023-07-20T12:47:17;1.70;;;1.60;;
32786;SDS011;19139;49.372;8.580;2023-07-20T12:49:44;2.10;;;1.60;;
32786;SDS011;19139;49.372;8.580;2023-07-20T12:52:11;2.30;;;1.43;;
32786;SDS011;19139;49.372;8.580;2023-07-20T12:54:38;1.57;;;1.40;;
32786;SDS011;19139;49.372;8.580;2023-07-20T12:57:05;2.33;;;1.33;;
32786;SDS011;19139;49.372;8.580;2023-07-20T12:59:35;2.20;;;1.50;;
32786;SDS011;19139;49.372;8.580;2023-07-20T13:02:02;1.83;;;1.60;;
32786;SDS011;19139;49.372;8.580;2023-07-20T13:04:29;2.13;;;1.47;;
32786;SDS011;19139;49.372;8.580;2023-07-20T13:06:56;4.03;;;1.97;;
32786;SDS011;19139;49.372;8.580;2023-07-20T13:09:24;2.27;;;1.93;;
32786;SDS011;19139;49.372;8.580;2023-07-20T13:11:51;2.23;;;1.83;;
32786;SDS011;19139;49.372;8.580;2023-07-20T13:14:19;3.30;;;2.83;;
32786;SDS011;19139;49.372;8.580;2023-07-20T13:16:45;3.70;;;2.20;;
32786;SDS011;19139;49.372;8.580;2023-07-20T13:19:12;3.47;;;2.20;;
32786;SDS011;19139;49.372;8.580;2023-07-20T13:21:39;2.20;;;1.80;;
32786;SDS011;19139;49.372;8.580;2023-07-20T13:24:06;2.63;;;2.00;;
32786;SDS011;19139;49.372;8.580;2023-07-20T13:26:33;3.00;;;1.90;;
32786;SDS011;19139;49.372;8.580;2023-07-20T13:29:01;2.50;;;1.70;;
32786;SDS011;19139;49.372;8.580;2023-07-20T13:31:28;3.60;;;1.93;;
32786;SDS011;19139;49.372;8.580;2023-07-20T13:33:58;2.93;;;2.10;;
32786;SDS011;19139;49.372;8.580;2023-07-20T13:36:26;2.70;;;1.87;;
32786;SDS011;19139;49.372;8.580;2023-07-20T13:38:55;2.00;;;1.73;;
32786;SDS011;19139;49.372;8.580;2023-07-20T13:41:22;2.17;;;1.80;;
32786;SDS011;19139;49.372;8.580;2023-07-20T13:43:50;4.60;;;2.33;;
32786;SDS011;19139;49.372;8.580;2023-07-20T13:46:17;2.07;;;1.83;;
32786;SDS011;19139;49.372;8.580;2023-07-20T13:49:04;3.63;;;2.17;;
32786;SDS011;19139;49.372;8.580;2023-07-20T13:51:38;2.90;;;1.70;;
32786;SDS011;19139;49.372;8.580;2023-07-20T13:54:06;3.63;;;2.00;;
32786;SDS011;19139;49.372;8.580;2023-07-20T13:56:36;2.53;;;1.70;;
32786;SDS011;19139;49.372;8.580;2023-07-20T13:59:03;1.60;;;1.47;;
32786;SDS011;19139;49.372;8.580;2023-07-20T14:01:31;2.57;;;1.90;;
32786;SDS011;19139;49.372;8.580;2023-07-20T14:04:02;2.30;;;1.63;;
32786;SDS011;19139;49.372;8.580;2023-07-20T14:06:31;2.00;;;1.30;;
32786;SDS011;19139;49.372;8.580;2023-07-20T14:08:59;3.10;;;1.50;;
32786;SDS011;19139;49.372;8.580;2023-07-20T14:11:26;2.33;;;1.70;;
32786;SDS011;19139;49.372;8.580;2023-07-20T14:13:56;2.50;;;1.80;;
32786;SDS011;19139;49.372;8.580;2023-07-20T14:16:24;2.53;;;1.63;;
32786;SDS011;19139;49.372;8.580;2023-07-20T14:18:51;2.60;;;1.60;;
32786;SDS011;19139;49.372;8.580;2023-07-20T14:21:19;2.53;;;1.53;;
32786;SDS011;19139;49.372;8.580;2023-07-20T14:23:48;2.13;;;1.47;;
32786;SDS011;19139;49.372;8.580;2023-07-20T14:26:19;3.27;;;2.10;;
32786;SDS011;19139;49.372;8.580;2023-07-20T14:28:48;2.43;;;1.60;;
32786;SDS011;19139;49.372;8.580;2023-07-20T14:31:15;2.63;;;2.10;;
32786;SDS011;19139;49.372;8.580;2023-07-20T14:33:44;3.10;;;1.37;;
32786;SDS011;19139;49.372;8.580;2023-07-20T14:36:11;2.00;;;1.33;;
32786;SDS011;19139;49.372;8.580;2023-07-20T14:38:38;2.53;;;2.07;;
32786;SDS011;19139;49.372;8.580;2023-07-20T14:41:06;2.70;;;1.60;;
32786;SDS011;19139;49.372;8.580;2023-07-20T14:43:33;3.07;;;1.57;;
32786;SDS011;19139;49.372;8.580;2023-07-20T14:46:00;4.40;;;1.50;;
32786;SDS011;19139;49.372;8.580;2023-07-20T14:48:26;2.97;;;1.60;;
32786;SDS011;19139;49.372;8.580;2023-07-20T14:50:53;1.57;;;1.47;;
32786;SDS011;19139;49.372;8.580;2023-07-20T14:53:30;2.03;;;1.80;;
32786;SDS011;19139;49.372;8.580;2023-07-20T14:56:00;2.57;;;1.70;;
32786;SDS011;19139;49.372;8.580;2023-07-20T14:58:27;2.00;;;1.60;;
32786;SDS011;19139;49.372;8.580;2023-07-20T15:00:55;2.20;;;1.57;;
32786;SDS011;19139;49.372;8.580;2023-07-20T15:03:21;1.93;;;1.40;;
32786;SDS011;19139;49.372;8.580;2023-07-20T15:05:48;1.73;;;1.63;;
32786;SDS011;19139;49.372;8.580;2023-07-20T15:08:17;2.57;;;1.83;;
32786;SDS011;19139;49.372;8.580;2023-07-20T15:10:45;4.17;;;1.67;;